ADDS METAR Data INFO
IDs: Format: Raw Decoded Include TAF

Data at: 0512 UTC 22 Jul 2017

KHQZ 220455Z AUTO 00000KT 10SM CLR 26/21 A2996 RMK AO1 T02580214
KHQZ 220435Z AUTO 00000KT 10SM CLR 26/21 A2996 RMK AO1 T02600213
KHQZ 220415Z AUTO 00000KT 10SM CLR 26/21 A2996 RMK AO1 T02640210
KHQZ 220355Z AUTO 15003KT 10SM CLR 27/21 A2996 RMK AO1 T02650207
KHQZ 220335Z AUTO 16003KT 10SM CLR 27/21 A2995 RMK AO1 T02670210
KHQZ 220315Z AUTO 14003KT 10SM CLR 27/21 A2995 RMK AO1 T02720207
KHQZ 220255Z AUTO 14003KT 10SM CLR 28/21 A2994 RMK AO1 T02770207
KHQZ 220235Z AUTO 14004KT 10SM CLR 29/21 A2993 RMK AO1 T02870206
KHQZ 220215Z AUTO 14005KT 10SM CLR 29/21 A2992 RMK AO1 T02940205
KHQZ 220155Z AUTO 14004KT 10SM CLR 30/20 A2992 RMK AO1 T03010202
KHQZ 220050Z 13006KT 10SM CLR 33/21 A2990
KHQZ 212350Z 14005KT 10SM CLR 34/19 A2991
KHQZ 212250Z 13006KT 10SM CLR 36/20 A2992
KHQZ 212150Z 13005KT 10SM CLR 36/19 A2994
KHQZ 212050Z 13007KT 10SM CLR 36/21 A2996
KHQZ 211950Z 15006KT 10SM CLR 36/21 A2997
KHQZ 211850Z 15005KT 10SM CLR 36/21 A2999
KHQZ 211750Z 00000KT 10SM CLR 34/21 A3001
KHQZ 211650Z 18006KT 10SM CLR 34/21 A3003
KHQZ 211550Z 19003KT 10SM CLR 32/22 A3004
KHQZ 211450Z 00000KT 10SM CLR 30/23 A3004
KHQZ 211350Z 18003KT 10SM CLR 28/24 A3004
KHQZ 211250Z 16004KT 10SM CLR 26/23 A3004
KHQZ 211150Z 00000KT 10SM CLR 24/23 A3003
KHQZ 211135Z AUTO 14003KT 10SM CLR 24/23 A3002 RMK AO1 T02380227
KHQZ 211115Z AUTO 00000KT 10SM CLR 24/23 A3001 RMK AO1 T02380227
KHQZ 211055Z AUTO 00000KT 10SM CLR 24/23 A3001 RMK AO1 T02360227
KHQZ 211035Z AUTO 00000KT 10SM CLR 24/23 A3000 RMK AO1 T02360226
KHQZ 211015Z AUTO 00000KT 10SM CLR 24/23 A3000 RMK AO1 T02370226
KHQZ 210955Z AUTO 00000KT 10SM CLR 24/23 A3000 RMK AO1 T02410228
KHQZ 210935Z AUTO 00000KT 10SM CLR 24/23 A3000 RMK AO1 T02420228
KHQZ 210915Z AUTO 00000KT 10SM CLR 24/23 A3000 RMK AO1 T02420227
KHQZ 210855Z AUTO 00000KT 10SM CLR 24/23 A3001 RMK AO1 T02430226
KHQZ 210835Z AUTO 00000KT 10SM CLR 25/23 A3001 RMK AO1 T02450226
KHQZ 210815Z AUTO 00000KT 10SM CLR 25/23 A3001 RMK AO1 T02460225
KHQZ 210755Z AUTO 00000KT 10SM CLR 25/23 A3001 RMK AO1 T02450226
KHQZ 210735Z AUTO 00000KT 10SM CLR 25/23 A3001 RMK AO1 T02480225
KHQZ 210715Z AUTO 00000KT 10SM CLR 25/22 A3001 RMK AO1 T02510223
KHQZ 210655Z AUTO 00000KT 10SM CLR 25/22 A3001 RMK AO1 T02530223
KHQZ 210635Z AUTO 00000KT 10SM CLR 26/23 A3001 RMK AO1 T02550226
KHQZ 210615Z AUTO 00000KT 10SM CLR 26/23 A3001 RMK AO1 T02580226
KHQZ 210555Z AUTO 00000KT 10SM CLR 26/23 A3002 RMK AO1 T02600226 10345 20260 403600235
KHQZ 210535Z AUTO 00000KT 10SM CLR 26/23 A3002 RMK AO1 T02610226
KHQZ 210515Z AUTO 00000KT 10SM CLR 27/23 A3002 RMK AO1 T02650229
KHQZ 210455Z AUTO 00000KT 10SM CLR 27/23 A3002 RMK AO1 T02720227
KHQZ 210435Z AUTO 00000KT 10SM CLR 27/23 A3002 RMK AO1 T02720229
KHQZ 210415Z AUTO 00000KT 10SM CLR 28/22 A3001 RMK AO1 T02800221
KHQZ 210355Z AUTO 00000KT 10SM CLR 29/22 A3002 RMK AO1 T02850220
KHQZ 210335Z AUTO 00000KT 10SM CLR 29/22 A3001 RMK AO1 T02860220
KHQZ 210315Z AUTO 00000KT 10SM CLR 29/22 A3001 RMK AO1 T02870218
KHQZ 210255Z AUTO 00000KT 10SM CLR 29/22 A3001 RMK AO1 T02880215
KHQZ 210235Z AUTO 00000KT 10SM CLR 29/22 A3000 RMK AO1 T02890216
KHQZ 210215Z AUTO 00000KT 10SM CLR 29/22 A2999 RMK AO1 T02920215
KHQZ 210155Z AUTO 00000KT 10SM CLR 30/21 A2999 RMK AO1 T03000211
KHQZ 210050Z 00000KT 10SM CLR 33/21 A2999
KHQZ 202350Z 11006KT 10SM SCT050 34/21 A2999
KHQZ 202250Z 11006KT 10SM SCT050 36/19 A2999
KHQZ 202150Z 14004KT 10SM SCT050 36/19 A3001
KHQZ 202050Z 13004KT 10SM SCT050 36/20 A3003
KHQZ 201950Z 14003KT 10SM SCT050 36/20 A3005
KHQZ 201850Z 15006KT 10SM SCT050 35/19 A3008
KHQZ 201750Z COR 18007KT 10SM SCT050 34/21 A3010